createdAt,value
2022-09-22T00:00:24.601Z,68.37
2022-09-22T00:01:24.640Z,68.31
2022-09-22T00:02:24.647Z,68.33
2022-09-22T00:03:25.430Z,68.07
2022-09-22T00:04:24.621Z,67.95
2022-09-22T00:05:24.622Z,67.98
2022-09-22T00:06:24.621Z,67.97
2022-09-22T00:07:24.634Z,67.68
2022-09-22T00:08:24.629Z,67.79
2022-09-22T00:09:24.627Z,67.59
2022-09-22T00:10:24.620Z,67.71
2022-09-22T00:11:24.642Z,67.84
2022-09-22T00:12:24.630Z,67.88
2022-09-22T00:13:24.640Z,67.96
2022-09-22T00:14:24.649Z,67.79
2022-09-22T00:15:24.637Z,67.67
2022-09-22T00:16:24.690Z,67.40
2022-09-22T00:17:24.627Z,67.46
2022-09-22T00:18:24.656Z,67.58
2022-09-22T00:19:24.620Z,67.49
2022-09-22T00:20:24.636Z,67.58
2022-09-22T00:21:24.666Z,67.49
2022-09-22T00:22:24.648Z,67.52
2022-09-22T00:23:24.639Z,67.69
2022-09-22T00:24:24.646Z,67.50
2022-09-22T00:25:24.645Z,67.52
2022-09-22T00:26:24.634Z,67.68
2022-09-22T00:27:24.645Z,67.52
2022-09-22T00:28:24.666Z,67.72
2022-09-22T00:29:24.635Z,67.52
2022-09-22T00:30:24.634Z,67.36
2022-09-22T00:31:24.706Z,67.71
2022-09-22T00:32:24.654Z,67.84
2022-09-22T00:33:25.032Z,67.81
2022-09-22T00:34:24.643Z,67.55
2022-09-22T00:35:24.644Z,67.62
2022-09-22T00:36:24.643Z,67.54
2022-09-22T00:37:24.662Z,67.49
2022-09-22T00:38:24.853Z,67.53
2022-09-22T00:39:24.681Z,67.67
2022-09-22T00:40:24.686Z,67.75
2022-09-22T00:41:24.652Z,67.91
2022-09-22T00:42:24.663Z,67.98
2022-09-22T00:43:24.990Z,68.05
2022-09-22T00:44:24.661Z,67.72
2022-09-22T00:45:24.673Z,67.75
2022-09-22T00:46:24.721Z,67.99
2022-09-22T00:47:24.710Z,67.90
2022-09-22T00:48:25.430Z,67.58
2022-09-22T00:49:24.712Z,67.05
2022-09-22T00:50:24.795Z,66.75
2022-09-22T00:51:24.690Z,66.89
2022-09-22T00:52:24.720Z,66.78
2022-09-22T00:53:24.708Z,66.74
2022-09-22T00:54:24.716Z,66.81
2022-09-22T00:55:24.709Z,66.95
2022-09-22T00:56:24.727Z,67.14
2022-09-22T00:57:24.728Z,67.14
2022-09-22T00:58:24.728Z,67.04
2022-09-22T00:59:24.737Z,67.11
2022-09-22T01:00:24.809Z,66.99
2022-09-22T01:01:24.767Z,67.17
2022-09-22T01:02:24.759Z,67.12
2022-09-22T01:03:29.075Z,67.33
2022-09-22T01:04:25.749Z,67.15
2022-09-22T01:05:24.773Z,67.19
2022-09-22T01:06:24.763Z,67.40
2022-09-22T01:07:24.787Z,67.23
2022-09-22T01:08:24.765Z,67.29
2022-09-22T01:09:24.785Z,67.33
2022-09-22T01:10:24.785Z,67.29
2022-09-22T01:11:24.824Z,67.35
2022-09-22T01:12:24.804Z,66.78
2022-09-22T01:13:24.815Z,66.67
2022-09-22T01:14:24.819Z,66.86
2022-09-22T01:15:24.816Z,67.00
2022-09-22T01:16:24.905Z,66.86
2022-09-22T01:17:24.834Z,66.81
2022-09-22T01:18:24.826Z,66.97
2022-09-22T01:19:24.830Z,66.88
2022-09-22T01:20:24.832Z,66.76
2022-09-22T01:21:24.843Z,66.67
2022-09-22T01:22:24.862Z,66.75
2022-09-22T01:23:24.861Z,66.87
2022-09-22T01:24:24.861Z,66.83
2022-09-22T01:25:24.861Z,66.75
2022-09-22T01:26:24.861Z,66.63
2022-09-22T01:27:24.879Z,66.70
2022-09-22T01:28:24.880Z,66.72
2022-09-22T01:29:24.870Z,66.65
2022-09-22T01:30:24.891Z,66.60
2022-09-22T01:31:24.921Z,66.40
2022-09-22T01:32:24.909Z,66.31
2022-09-22T01:33:25.049Z,66.38
2022-09-22T01:34:24.900Z,66.28
2022-09-22T01:35:24.888Z,66.05
2022-09-22T01:36:24.888Z,66.15
2022-09-22T01:37:24.899Z,66.24
2022-09-22T01:38:25.269Z,66.14
2022-09-22T01:39:24.890Z,66.07
2022-09-22T01:40:24.916Z,66.24
2022-09-22T01:41:24.897Z,66.37
2022-09-22T01:42:24.916Z,66.43
2022-09-22T01:43:25.419Z,66.57
2022-09-22T01:44:24.906Z,66.52
2022-09-22T01:45:24.915Z,66.70
2022-09-22T01:46:24.957Z,66.51
2022-09-22T01:47:24.926Z,66.35
2022-09-22T01:48:25.595Z,66.61
2022-09-22T01:49:24.935Z,66.38
2022-09-22T01:50:24.933Z,66.61
2022-09-22T01:51:24.942Z,66.65
2022-09-22T01:52:24.944Z,66.77
2022-09-22T01:53:24.943Z,66.78
2022-09-22T01:54:24.948Z,66.78
2022-09-22T01:55:24.945Z,66.74
2022-09-22T01:56:24.944Z,66.82
2022-09-22T01:57:24.991Z,66.81
2022-09-22T01:58:25.515Z,66.72
2022-09-22T01:59:24.957Z,66.62
2022-09-22T02:00:24.962Z,66.71
2022-09-22T02:01:25.030Z,66.91
2022-09-22T02:02:25.129Z,66.43
2022-09-22T02:03:24.962Z,66.26
2022-09-22T02:04:24.964Z,66.43
2022-09-22T02:05:24.961Z,66.37
2022-09-22T02:06:24.970Z,66.45
2022-09-22T02:07:24.978Z,66.27
2022-09-22T02:08:25.077Z,66.34
2022-09-22T02:09:24.979Z,66.28
2022-09-22T02:10:24.983Z,66.32
2022-09-22T02:11:24.999Z,65.96
2022-09-22T02:12:25.018Z,65.60
2022-09-22T02:13:24.989Z,65.76
2022-09-22T02:14:24.982Z,65.82
2022-09-22T02:15:24.989Z,65.79
2022-09-22T02:16:24.989Z,65.97
2022-09-22T02:17:24.999Z,65.96
2022-09-22T02:18:25.038Z,66.17
2022-09-22T02:19:25.035Z,66.09
2022-09-22T02:20:25.066Z,66.15
2022-09-22T02:21:25.017Z,66.31
2022-09-22T02:22:25.027Z,66.09
2022-09-22T02:23:25.098Z,66.01
2022-09-22T02:24:25.036Z,65.92
2022-09-22T02:25:25.081Z,65.91
2022-09-22T02:26:25.055Z,65.46
2022-09-22T02:27:25.065Z,65.41
2022-09-22T02:28:25.066Z,65.62
2022-09-22T02:29:25.036Z,65.64
2022-09-22T02:30:25.035Z,65.60
2022-09-22T02:31:25.140Z,65.76
2022-09-22T02:32:25.034Z,65.94
2022-09-22T02:33:25.086Z,65.94
2022-09-22T02:34:25.066Z,66.04
2022-09-22T02:35:25.053Z,66.07
2022-09-22T02:36:25.083Z,66.23
2022-09-22T02:37:25.073Z,66.06
2022-09-22T02:38:25.122Z,66.03
2022-09-22T02:39:25.092Z,65.99
2022-09-22T02:40:25.206Z,66.05
2022-09-22T02:41:25.114Z,66.08
2022-09-22T02:42:25.111Z,66.07
2022-09-22T02:43:25.419Z,65.89
2022-09-22T02:44:25.132Z,66.03
2022-09-22T02:45:25.141Z,66.20
2022-09-22T02:46:25.216Z,66.12
2022-09-22T02:47:25.172Z,66.11
2022-09-22T02:48:25.580Z,66.38
2022-09-22T02:49:25.166Z,66.42
2022-09-22T02:50:25.160Z,66.47
2022-09-22T02:51:25.160Z,66.46
2022-09-22T02:52:25.200Z,66.37
2022-09-22T02:53:25.189Z,66.33
2022-09-22T02:54:25.187Z,66.32
2022-09-22T02:55:25.172Z,66.15
2022-09-22T02:56:25.179Z,65.85
2022-09-22T02:57:25.184Z,66.01
2022-09-22T02:58:25.178Z,65.92
2022-09-22T02:59:25.198Z,65.90
2022-09-22T03:00:25.217Z,65.85
2022-09-22T03:01:25.279Z,66.07
2022-09-22T03:02:25.186Z,66.07
2022-09-22T03:03:25.199Z,65.59
2022-09-22T03:04:25.298Z,65.56
2022-09-22T03:05:25.214Z,65.72
2022-09-22T03:06:25.226Z,65.74
2022-09-22T03:07:25.208Z,65.80
2022-09-22T03:08:25.218Z,65.91
2022-09-22T03:09:25.235Z,65.81
2022-09-22T03:10:25.233Z,65.84
2022-09-22T03:11:25.244Z,65.91
2022-09-22T03:12:25.244Z,65.96
2022-09-22T03:13:25.252Z,65.78
2022-09-22T03:14:25.276Z,65.65
2022-09-22T03:15:27.214Z,65.41
2022-09-22T03:16:25.274Z,65.72
2022-09-22T03:17:25.274Z,65.79
2022-09-22T03:18:25.280Z,65.81
2022-09-22T03:19:25.294Z,65.87
2022-09-22T03:20:25.353Z,65.68
2022-09-22T03:21:25.282Z,65.52
2022-09-22T03:22:25.284Z,65.49
2022-09-22T03:23:25.291Z,65.44
2022-09-22T03:24:25.309Z,65.40
2022-09-22T03:25:25.290Z,65.45
2022-09-22T03:26:25.311Z,65.47
2022-09-22T03:27:25.299Z,65.36
2022-09-22T03:28:25.300Z,65.63
2022-09-22T03:29:25.300Z,65.70
2022-09-22T03:30:25.290Z,65.65
2022-09-22T03:31:25.378Z,65.65
2022-09-22T03:32:25.309Z,65.63
2022-09-22T03:33:25.317Z,65.86
2022-09-22T03:34:25.299Z,65.94
2022-09-22T03:35:25.298Z,65.54
2022-09-22T03:36:25.300Z,65.11
2022-09-22T03:37:25.298Z,65.26
2022-09-22T03:38:25.308Z,65.53
2022-09-22T03:39:25.325Z,65.52
2022-09-22T03:40:25.359Z,65.70
2022-09-22T03:41:25.335Z,65.32
2022-09-22T03:42:25.347Z,64.79
2022-09-22T03:43:25.346Z,64.61
2022-09-22T03:44:25.347Z,65.08
2022-09-22T03:45:25.346Z,65.33
2022-09-22T03:46:25.389Z,65.55
2022-09-22T03:47:25.356Z,65.18
2022-09-22T03:48:25.564Z,65.37
2022-09-22T03:49:25.375Z,65.50
2022-09-22T03:50:25.364Z,65.69
2022-09-22T03:51:25.363Z,66.00
2022-09-22T03:52:25.374Z,66.00
2022-09-22T03:53:25.401Z,65.84
2022-09-22T03:54:25.389Z,65.74
2022-09-22T03:55:25.364Z,65.74
2022-09-22T03:56:25.364Z,65.53
2022-09-22T03:57:25.377Z,65.61
2022-09-22T03:58:25.373Z,65.72
2022-09-22T03:59:25.405Z,65.62
2022-09-22T04:00:25.454Z,65.54
2022-09-22T04:01:25.471Z,65.61
2022-09-22T04:02:25.420Z,65.43
2022-09-22T04:03:25.382Z,65.06
2022-09-22T04:04:25.385Z,65.43
2022-09-22T04:05:25.371Z,65.40
2022-09-22T04:06:25.381Z,65.52
2022-09-22T04:07:25.391Z,65.52
2022-09-22T04:08:25.391Z,65.63
2022-09-22T04:09:25.413Z,65.69
2022-09-22T04:10:25.400Z,65.86
2022-09-22T04:11:25.406Z,65.85
2022-09-22T04:12:25.433Z,65.15
2022-09-22T04:13:25.419Z,64.09
2022-09-22T04:14:25.443Z,64.47
2022-09-22T04:15:25.434Z,64.98
2022-09-22T04:16:25.445Z,65.11
2022-09-22T04:17:25.452Z,65.20
2022-09-22T04:18:25.449Z,65.26
2022-09-22T04:19:25.438Z,65.14
2022-09-22T04:20:25.427Z,65.04
2022-09-22T04:21:25.428Z,65.03
2022-09-22T04:22:25.427Z,64.96
2022-09-22T04:23:25.435Z,64.66
2022-09-22T04:24:25.456Z,64.92
2022-09-22T04:25:25.444Z,65.04
2022-09-22T04:26:25.446Z,65.00
2022-09-22T04:27:25.440Z,65.16
2022-09-22T04:28:25.431Z,65.19
2022-09-22T04:29:25.446Z,65.36
2022-09-22T04:30:25.490Z,65.36
2022-09-22T04:31:25.453Z,65.39
2022-09-22T04:32:25.455Z,65.31
2022-09-22T04:33:25.473Z,65.17
2022-09-22T04:34:25.492Z,65.17
2022-09-22T04:35:25.480Z,65.15
2022-09-22T04:36:25.503Z,64.81
2022-09-22T04:37:25.492Z,65.01
2022-09-22T04:38:25.503Z,65.32
2022-09-22T04:39:25.524Z,65.36
2022-09-22T04:40:25.606Z,65.43
2022-09-22T04:41:25.521Z,65.15
2022-09-22T04:42:25.531Z,65.09
2022-09-22T04:43:25.531Z,65.22
2022-09-22T04:44:25.540Z,65.18
2022-09-22T04:45:25.532Z,65.07
2022-09-22T04:46:25.562Z,64.94
2022-09-22T04:47:25.528Z,64.86
2022-09-22T04:48:25.530Z,65.00
2022-09-22T04:49:25.543Z,65.03
2022-09-22T04:50:25.541Z,65.13
2022-09-22T04:51:25.557Z,65.14
2022-09-22T04:52:25.539Z,65.14
2022-09-22T04:53:25.549Z,65.10
2022-09-22T04:54:25.569Z,65.22
2022-09-22T04:55:25.550Z,65.09
2022-09-22T04:56:25.557Z,65.15
2022-09-22T04:57:25.565Z,65.35
2022-09-22T04:58:25.939Z,65.19
2022-09-22T04:59:25.567Z,65.20
2022-09-22T05:00:25.587Z,65.11
2022-09-22T05:01:25.600Z,65.07
2022-09-22T05:02:25.586Z,64.81
2022-09-22T05:03:26.105Z,64.65
2022-09-22T05:04:25.641Z,64.68
2022-09-22T05:05:25.616Z,64.38
2022-09-22T05:06:25.607Z,64.51
2022-09-22T05:07:25.625Z,64.30
2022-09-22T05:08:25.643Z,64.70
2022-09-22T05:09:25.645Z,64.90
2022-09-22T05:10:25.676Z,65.09
2022-09-22T05:11:25.644Z,65.17
2022-09-22T05:12:25.654Z,64.96
2022-09-22T05:13:25.667Z,64.74
2022-09-22T05:14:26.498Z,64.81
2022-09-22T05:15:25.692Z,64.97
2022-09-22T05:16:25.726Z,65.11
2022-09-22T05:17:25.702Z,64.84
2022-09-22T05:18:25.704Z,64.70
2022-09-22T05:19:25.712Z,64.92
2022-09-22T05:20:25.724Z,64.93
2022-09-22T05:21:25.710Z,64.83
2022-09-22T05:22:25.732Z,64.55
2022-09-22T05:23:25.731Z,64.68
2022-09-22T05:24:25.744Z,64.57
2022-09-22T05:25:25.741Z,64.58
2022-09-22T05:26:25.732Z,64.81
2022-09-22T05:27:25.739Z,64.88
2022-09-22T05:28:25.751Z,64.91
2022-09-22T05:29:27.921Z,64.88
2022-09-22T05:30:25.781Z,64.73
2022-09-22T05:31:25.800Z,64.74
2022-09-22T05:32:25.779Z,64.72
2022-09-22T05:33:25.789Z,64.70
2022-09-22T05:34:25.788Z,64.73
2022-09-22T05:35:25.816Z,64.68
2022-09-22T05:36:25.798Z,64.91
2022-09-22T05:37:25.789Z,64.93
2022-09-22T05:38:25.788Z,64.79
2022-09-22T05:39:25.796Z,64.98
2022-09-22T05:40:25.843Z,65.10
2022-09-22T05:41:25.796Z,65.02
2022-09-22T05:42:25.802Z,65.02
2022-09-22T05:43:25.807Z,65.16
2022-09-22T05:44:25.816Z,65.00
2022-09-22T05:45:25.901Z,65.11
2022-09-22T05:46:25.828Z,65.12
2022-09-22T05:47:25.817Z,65.08
2022-09-22T05:48:30.894Z,65.23
2022-09-22T05:49:26.795Z,65.25
2022-09-22T05:50:25.824Z,65.07
2022-09-22T05:51:25.815Z,65.01
2022-09-22T05:52:25.833Z,64.87
2022-09-22T05:53:26.324Z,64.82
2022-09-22T05:54:25.837Z,64.92
2022-09-22T05:55:25.841Z,64.93
2022-09-22T05:56:25.850Z,64.99
2022-09-22T05:57:25.875Z,65.01
2022-09-22T05:58:25.863Z,64.85
2022-09-22T05:59:25.873Z,64.70
2022-09-22T06:00:25.883Z,64.89
2022-09-22T06:01:25.917Z,64.91
2022-09-22T06:02:26.664Z,64.93
2022-09-22T06:03:25.898Z,65.07
2022-09-22T06:04:25.902Z,65.13
2022-09-22T06:05:25.915Z,65.20
2022-09-22T06:06:25.912Z,65.10
2022-09-22T06:07:25.911Z,65.24
2022-09-22T06:08:25.921Z,65.50
2022-09-22T06:09:25.909Z,65.36
2022-09-22T06:10:25.933Z,65.26
2022-09-22T06:11:25.920Z,65.24
2022-09-22T06:12:25.928Z,65.28
2022-09-22T06:13:25.930Z,65.07
2022-09-22T06:14:25.939Z,65.07
2022-09-22T06:15:25.948Z,65.36
2022-09-22T06:16:25.981Z,65.46
2022-09-22T06:17:25.968Z,65.43
2022-09-22T06:18:25.959Z,65.73
2022-09-22T06:19:25.957Z,65.65
2022-09-22T06:20:26.060Z,65.58
2022-09-22T06:21:25.968Z,64.93
2022-09-22T06:22:25.966Z,65.36
2022-09-22T06:23:25.988Z,65.84
2022-09-22T06:24:25.988Z,65.67
2022-09-22T06:25:25.996Z,64.70
2022-09-22T06:26:26.006Z,63.86
2022-09-22T06:27:26.005Z,65.02
2022-09-22T06:28:26.044Z,65.66
2022-09-22T06:29:26.023Z,65.90
2022-09-22T06:30:26.100Z,65.83
2022-09-22T06:31:26.165Z,66.06
2022-09-22T06:32:26.058Z,65.91
2022-09-22T06:33:26.083Z,65.33
2022-09-22T06:34:26.074Z,65.87
2022-09-22T06:35:26.091Z,66.16
2022-09-22T06:36:26.093Z,66.23
2022-09-22T06:37:26.093Z,66.03
2022-09-22T06:38:26.102Z,66.37
2022-09-22T06:39:26.113Z,66.53
2022-09-22T06:40:26.284Z,65.95
2022-09-22T06:41:26.132Z,65.38
2022-09-22T06:42:26.142Z,66.19
2022-09-22T06:43:26.157Z,66.40
2022-09-22T06:44:26.153Z,66.39
2022-09-22T06:45:26.240Z,66.39
2022-09-22T06:46:26.170Z,66.31
2022-09-22T06:47:26.180Z,65.91
2022-09-22T06:48:26.224Z,65.76
2022-09-22T06:49:26.215Z,65.66
2022-09-22T06:50:28.939Z,64.32
2022-09-22T06:51:26.210Z,63.51
2022-09-22T06:52:26.250Z,63.24
2022-09-22T06:53:27.619Z,63.12
2022-09-22T06:54:26.227Z,63.72
2022-09-22T06:55:26.229Z,65.79
2022-09-22T06:56:26.237Z,65.82
2022-09-22T06:57:26.238Z,65.94
2022-09-22T06:58:26.250Z,66.43
2022-09-22T06:59:26.268Z,66.75
2022-09-22T07:00:26.287Z,66.99
2022-09-22T07:01:26.366Z,67.22
2022-09-22T07:02:26.305Z,67.28
2022-09-22T07:03:26.381Z,66.91
2022-09-22T07:04:26.276Z,67.09
2022-09-22T07:05:26.295Z,67.01
2022-09-22T07:06:26.296Z,67.05
2022-09-22T07:07:26.283Z,67.26
2022-09-22T07:08:26.285Z,67.32
2022-09-22T07:09:26.284Z,67.27
2022-09-22T07:10:26.284Z,67.32
2022-09-22T07:11:26.294Z,67.36
2022-09-22T07:12:26.454Z,67.12
2022-09-22T07:13:26.286Z,67.05
2022-09-22T07:14:26.274Z,67.14
2022-09-22T07:15:26.264Z,67.10
2022-09-22T07:16:26.333Z,66.98
2022-09-22T07:17:26.271Z,66.95
2022-09-22T07:18:26.273Z,66.91
2022-09-22T07:19:26.283Z,66.96
2022-09-22T07:20:26.283Z,67.08
2022-09-22T07:21:26.282Z,67.10
2022-09-22T07:22:26.272Z,66.76
2022-09-22T07:23:26.282Z,67.14
2022-09-22T07:24:26.281Z,67.29
2022-09-22T07:25:26.281Z,67.37
2022-09-22T07:26:26.301Z,67.47
2022-09-22T07:27:26.292Z,67.64
2022-09-22T07:28:26.300Z,67.82
2022-09-22T07:29:26.300Z,67.99
2022-09-22T07:30:26.315Z,67.99
2022-09-22T07:31:28.807Z,68.02
2022-09-22T07:32:26.308Z,68.08
2022-09-22T07:33:26.349Z,68.10
2022-09-22T07:34:26.309Z,68.09
2022-09-22T07:35:26.310Z,68.08
2022-09-22T07:36:26.316Z,68.06
2022-09-22T07:37:26.328Z,68.06
2022-09-22T07:38:26.338Z,68.23
2022-09-22T07:39:26.305Z,68.21
2022-09-22T07:40:26.320Z,68.44
2022-09-22T07:41:26.298Z,68.53
2022-09-22T07:42:26.297Z,68.66
2022-09-22T07:43:26.317Z,68.71
2022-09-22T07:44:26.316Z,68.52
2022-09-22T07:45:26.317Z,68.51
2022-09-22T07:46:26.355Z,68.80
2022-09-22T07:47:26.335Z,68.93
2022-09-22T07:48:26.356Z,68.90
2022-09-22T07:49:26.325Z,68.88
2022-09-22T07:50:26.335Z,68.86
2022-09-22T07:51:26.353Z,68.86
2022-09-22T07:52:26.346Z,68.86
2022-09-22T07:53:26.365Z,68.66
2022-09-22T07:54:26.364Z,68.58
2022-09-22T07:55:26.547Z,68.76
2022-09-22T07:56:26.364Z,69.07
2022-09-22T07:57:26.343Z,69.03
2022-09-22T07:58:26.362Z,69.00
2022-09-22T07:59:26.353Z,69.14
2022-09-22T08:00:26.430Z,68.79
2022-09-22T08:01:26.353Z,69.21
2022-09-22T08:02:26.404Z,69.20
2022-09-22T08:03:26.342Z,69.16
2022-09-22T08:04:26.384Z,69.27
2022-09-22T08:05:26.333Z,69.17
2022-09-22T08:06:26.341Z,69.07
2022-09-22T08:07:26.322Z,69.50
2022-09-22T08:08:26.324Z,69.33
2022-09-22T08:09:26.329Z,69.31
2022-09-22T08:10:26.323Z,69.30
2022-09-22T08:11:26.312Z,69.20
2022-09-22T08:12:26.313Z,69.14
2022-09-22T08:13:26.299Z,69.27
2022-09-22T08:14:26.360Z,69.38
2022-09-22T08:15:27.548Z,69.39
2022-09-22T08:16:26.323Z,69.49
2022-09-22T08:17:26.298Z,69.60
2022-09-22T08:18:26.288Z,69.65
2022-09-22T08:19:26.307Z,69.57
2022-09-22T08:20:26.296Z,69.39
2022-09-22T08:21:26.297Z,69.28
2022-09-22T08:22:26.294Z,69.25
2022-09-22T08:23:26.296Z,68.90
2022-09-22T08:24:26.286Z,69.26
2022-09-22T08:25:26.286Z,69.64
2022-09-22T08:26:26.286Z,69.79
2022-09-22T08:27:26.285Z,69.58
2022-09-22T08:28:26.285Z,69.21
2022-09-22T08:29:26.294Z,69.05
2022-09-22T08:30:26.294Z,69.57
2022-09-22T08:31:26.364Z,69.61
2022-09-22T08:32:26.304Z,69.36
2022-09-22T08:33:26.305Z,69.46
2022-09-22T08:34:26.284Z,69.58
2022-09-22T08:35:26.294Z,69.69
2022-09-22T08:36:26.295Z,69.95
2022-09-22T08:37:26.303Z,69.56
2022-09-22T08:38:26.297Z,69.70
2022-09-22T08:39:26.282Z,69.87
2022-09-22T08:40:26.313Z,70.05
2022-09-22T08:41:26.272Z,70.11
2022-09-22T08:42:26.282Z,69.97
2022-09-22T08:43:26.275Z,70.06
2022-09-22T08:44:26.264Z,70.31
2022-09-22T08:45:27.156Z,70.13
2022-09-22T08:46:26.360Z,70.15
2022-09-22T08:47:26.261Z,69.27
2022-09-22T08:48:26.261Z,68.97
2022-09-22T08:49:26.250Z,69.23
2022-09-22T08:50:26.249Z,69.35
2022-09-22T08:51:26.257Z,69.26
2022-09-22T08:52:26.270Z,69.67
2022-09-22T08:53:26.229Z,69.85
2022-09-22T08:54:26.237Z,69.00
2022-09-22T08:55:26.221Z,69.01
2022-09-22T08:56:26.221Z,69.02
2022-09-22T08:57:26.208Z,68.93
2022-09-22T08:58:26.209Z,68.83
2022-09-22T08:59:26.231Z,68.79
2022-09-22T09:00:26.254Z,68.73
2022-09-22T09:01:26.262Z,68.79
2022-09-22T09:02:26.252Z,69.26
2022-09-22T09:03:26.195Z,68.82
2022-09-22T09:04:26.186Z,68.07
2022-09-22T09:05:26.178Z,68.21
2022-09-22T09:06:26.166Z,68.71
2022-09-22T09:07:26.165Z,69.27
2022-09-22T09:08:26.146Z,69.60
2022-09-22T09:09:26.146Z,69.11
2022-09-22T09:10:26.163Z,69.69
2022-09-22T09:11:26.122Z,69.67
2022-09-22T09:12:26.105Z,69.69
2022-09-22T09:13:26.165Z,69.64
2022-09-22T09:14:26.074Z,69.63
2022-09-22T09:15:26.082Z,69.60
2022-09-22T09:16:26.044Z,69.73
2022-09-22T09:17:26.083Z,70.09
2022-09-22T09:18:26.053Z,70.30
2022-09-22T09:19:26.041Z,70.37
2022-09-22T09:20:26.021Z,70.64
2022-09-22T09:21:26.002Z,70.68
2022-09-22T09:22:26.003Z,70.72
2022-09-22T09:25:21.857Z,70.48
2022-09-22T09:25:27.969Z,70.43
2022-09-22T09:26:25.951Z,70.10
2022-09-22T09:27:25.950Z,70.25
2022-09-22T09:28:28.016Z,69.97
2022-09-22T09:29:25.900Z,69.99
2022-09-22T09:30:26.054Z,69.81
2022-09-22T09:31:25.911Z,69.57
2022-09-22T09:32:25.901Z,69.92
2022-09-22T09:33:25.839Z,69.78
2022-09-22T09:34:25.829Z,70.00
2022-09-22T09:35:25.834Z,69.95
2022-09-22T09:36:25.812Z,70.13
2022-09-22T09:37:25.810Z,70.25
2022-09-22T09:38:25.778Z,70.32
2022-09-22T09:39:25.820Z,70.33
2022-09-22T09:40:25.806Z,70.29
2022-09-22T09:41:25.777Z,70.26
2022-09-22T09:42:25.777Z,70.28
2022-09-22T09:43:25.709Z,70.22
2022-09-22T09:44:25.714Z,70.14
2022-09-22T09:45:25.686Z,70.11
2022-09-22T09:46:25.734Z,69.88
2022-09-22T09:47:25.683Z,69.90
2022-09-22T09:48:25.680Z,69.76
2022-09-22T09:49:25.665Z,69.75
2022-09-22T09:50:25.639Z,68.14
2022-09-22T09:51:25.670Z,68.26
2022-09-22T09:52:25.614Z,68.65
2022-09-22T09:53:25.605Z,68.84
2022-09-22T09:54:25.584Z,68.94
2022-09-22T09:55:27.246Z,68.29
2022-09-22T09:56:25.584Z,67.70
2022-09-22T09:57:28.528Z,67.93
2022-09-22T09:58:25.550Z,68.58
2022-09-22T09:59:25.524Z,68.88
2022-09-22T10:00:25.520Z,69.06
2022-09-22T10:01:25.523Z,69.31
2022-09-22T10:02:25.492Z,69.41
2022-09-22T10:03:25.534Z,69.48
2022-09-22T10:04:25.467Z,69.65
2022-09-22T10:05:25.451Z,69.73
2022-09-22T10:06:25.451Z,69.62
2022-09-22T10:07:25.452Z,66.61
2022-09-22T10:08:25.420Z,66.53
2022-09-22T10:09:25.390Z,66.34
2022-09-22T10:10:25.370Z,65.60
2022-09-22T10:11:25.378Z,65.55
2022-09-22T10:12:25.363Z,64.25
2022-09-22T10:13:25.350Z,64.04
2022-09-22T10:14:25.350Z,64.62
2022-09-22T10:15:25.318Z,64.67
2022-09-22T10:16:25.298Z,64.93
2022-09-22T10:17:25.297Z,65.92
2022-09-22T10:18:25.318Z,64.78
2022-09-22T10:19:25.248Z,63.77
2022-09-22T10:20:25.238Z,61.89
2022-09-22T10:21:25.219Z,61.39
2022-09-22T10:22:25.207Z,62.28
2022-09-22T10:23:25.181Z,62.98
2022-09-22T10:24:25.168Z,63.45
2022-09-22T10:25:25.146Z,63.15
2022-09-22T10:26:25.127Z,63.32
2022-09-22T10:27:25.117Z,63.67
2022-09-22T10:28:25.094Z,63.98
2022-09-22T10:29:25.106Z,64.42
2022-09-22T10:30:25.075Z,64.66
2022-09-22T10:31:25.173Z,63.67
2022-09-22T10:32:25.054Z,63.67
2022-09-22T10:33:25.024Z,62.41
2022-09-22T10:34:25.007Z,61.21
2022-09-22T10:35:25.005Z,60.54
2022-09-22T10:36:24.992Z,59.99
2022-09-22T10:37:24.985Z,60.28
2022-09-22T10:38:24.969Z,60.15
2022-09-22T10:39:24.961Z,59.52
2022-09-22T10:40:25.062Z,60.37
2022-09-22T10:41:24.946Z,60.78
2022-09-22T10:42:24.922Z,59.75
2022-09-22T10:43:24.932Z,59.69
2022-09-22T10:44:38.668Z,60.72
2022-09-22T10:45:25.910Z,61.42
2022-09-22T10:46:24.945Z,62.19
2022-09-22T10:47:27.124Z,62.63
2022-09-22T10:48:24.873Z,63.54
2022-09-22T10:49:24.878Z,64.54
2022-09-22T10:50:24.920Z,65.31
2022-09-22T10:51:24.877Z,65.87
2022-09-22T10:52:24.821Z,66.20
2022-09-22T10:53:24.827Z,66.67
2022-09-22T10:54:24.796Z,66.76
2022-09-22T10:55:24.779Z,66.52
2022-09-22T10:56:24.769Z,66.35
2022-09-22T10:57:24.740Z,66.81
2022-09-22T10:58:24.717Z,67.32
2022-09-22T10:59:24.707Z,66.61
2022-09-22T11:00:24.767Z,66.17
2022-09-22T11:01:24.747Z,65.79
2022-09-22T11:02:24.667Z,65.18
2022-09-22T11:03:24.657Z,64.69
2022-09-22T11:04:24.649Z,61.61
2022-09-22T11:05:24.619Z,62.06
2022-09-22T11:06:24.606Z,63.39
2022-09-22T11:07:24.566Z,64.53
2022-09-22T11:08:24.557Z,64.57
2022-09-22T11:09:24.534Z,64.21
2022-09-22T11:10:24.521Z,63.88
2022-09-22T11:11:24.515Z,63.67
2022-09-22T11:12:24.493Z,63.40
2022-09-22T11:13:24.485Z,63.16
2022-09-22T11:14:24.474Z,62.24
2022-09-22T11:15:24.531Z,60.10
2022-09-22T11:16:24.443Z,61.00
2022-09-22T11:17:24.432Z,61.88
2022-09-22T11:18:24.415Z,62.26
2022-09-22T11:19:24.390Z,62.63
2022-09-22T11:20:24.439Z,62.15
2022-09-22T11:21:24.374Z,58.92
2022-09-22T11:22:24.342Z,58.31
2022-09-22T11:23:24.331Z,58.27
2022-09-22T11:24:24.399Z,59.00
2022-09-22T11:25:24.308Z,60.50
2022-09-22T11:26:24.290Z,61.62
2022-09-22T11:27:24.296Z,62.07
2022-09-22T11:28:24.271Z,62.29
2022-09-22T11:29:24.250Z,62.29
2022-09-22T11:30:24.240Z,61.91
2022-09-22T11:31:24.230Z,61.60
2022-09-22T11:32:24.230Z,59.49
2022-09-22T11:33:24.220Z,60.38
2022-09-22T11:34:24.200Z,61.17
2022-09-22T11:35:24.191Z,62.22
2022-09-22T11:36:24.189Z,62.95
2022-09-22T11:37:24.186Z,62.58
2022-09-22T11:38:24.142Z,59.61
2022-09-22T11:39:24.128Z,60.51
2022-09-22T11:40:24.155Z,59.07
2022-09-22T11:41:24.087Z,59.13
2022-09-22T11:42:24.087Z,59.92
2022-09-22T11:43:24.056Z,61.30
2022-09-22T11:44:24.035Z,62.11
2022-09-22T11:45:24.007Z,62.53
2022-09-22T11:46:24.003Z,62.03
2022-09-22T11:47:23.985Z,61.82
2022-09-22T11:48:24.052Z,61.47
2022-09-22T11:49:23.945Z,59.58
2022-09-22T11:50:23.945Z,58.43
2022-09-22T11:51:23.934Z,58.25
2022-09-22T11:52:23.933Z,58.70
2022-09-22T11:53:23.914Z,59.21
2022-09-22T11:54:23.902Z,59.86
2022-09-22T11:55:23.911Z,60.01
2022-09-22T11:56:23.871Z,60.72
2022-09-22T11:57:23.863Z,61.21
2022-09-22T11:58:23.823Z,61.62
2022-09-22T11:59:23.812Z,61.86
2022-09-22T12:00:23.791Z,61.82
2022-09-22T12:01:23.772Z,61.41
2022-09-22T12:02:23.834Z,61.19
2022-09-22T12:03:23.821Z,60.97
2022-09-22T12:04:23.701Z,59.42
2022-09-22T12:05:23.709Z,58.87
2022-09-22T12:06:23.678Z,59.58
2022-09-22T12:07:23.671Z,60.19
2022-09-22T12:08:23.651Z,60.36
2022-09-22T12:09:23.634Z,60.17
2022-09-22T12:10:23.621Z,60.47
2022-09-22T12:11:23.609Z,59.34
2022-09-22T12:12:23.588Z,57.76
2022-09-22T12:13:23.587Z,58.13
2022-09-22T12:14:23.568Z,58.97
2022-09-22T12:15:23.561Z,59.48
2022-09-22T12:16:23.548Z,57.36
2022-09-22T12:17:23.841Z,57.82
2022-09-22T12:18:23.506Z,56.37
2022-09-22T12:19:23.497Z,56.28
2022-09-22T12:20:23.477Z,56.75
2022-09-22T12:21:23.457Z,57.98
2022-09-22T12:22:23.436Z,59.38
2022-09-22T12:23:23.426Z,60.26
2022-09-22T12:24:23.417Z,60.80
2022-09-22T12:25:44.677Z,61.19
2022-09-22T12:26:24.396Z,61.79
2022-09-22T12:27:23.380Z,61.48
2022-09-22T12:28:23.366Z,59.02
2022-09-22T12:29:23.345Z,56.80
2022-09-22T12:30:23.362Z,56.90
2022-09-22T12:32:23.294Z,54.66
2022-09-22T12:33:23.294Z,54.61
2022-09-22T12:34:23.274Z,55.71
2022-09-22T12:35:25.273Z,56.63
2022-09-22T12:36:24.245Z,57.42
2022-09-22T12:37:23.234Z,57.87
2022-09-22T12:38:23.220Z,58.63
2022-09-22T12:39:23.193Z,58.93
2022-09-22T12:40:23.203Z,58.58
2022-09-22T12:41:23.182Z,59.07
2022-09-22T12:42:23.161Z,59.17
2022-09-22T12:43:23.331Z,58.94
2022-09-22T12:44:23.121Z,59.00
2022-09-22T12:45:23.105Z,59.24
2022-09-22T12:46:23.134Z,59.17
2022-09-22T12:47:23.082Z,58.89
2022-09-22T12:48:23.378Z,58.74
2022-09-22T12:49:23.040Z,59.08
2022-09-22T12:50:23.027Z,58.67
2022-09-22T12:51:23.019Z,58.68
2022-09-22T12:52:22.999Z,58.67
2022-09-22T12:53:23.459Z,59.06
2022-09-22T12:54:22.969Z,59.77